createdAt,value
2022-10-06T00:01:09.835Z,3.00
2022-10-06T00:04:52.633Z,3.30
2022-10-06T00:08:37.434Z,3.17
2022-10-06T00:12:20.139Z,1.93
2022-10-06T00:16:04.238Z,2.80
2022-10-06T00:19:48.606Z,1.90
2022-10-06T00:23:31.305Z,2.53
2022-10-06T00:27:13.968Z,2.50
2022-10-06T00:30:57.057Z,2.23
2022-10-06T00:34:39.731Z,3.13
2022-10-06T00:38:23.741Z,2.90
2022-10-06T00:42:06.586Z,2.83
2022-10-06T00:45:50.052Z,1.83
2022-10-06T00:49:36.955Z,4.10
2022-10-06T00:53:19.635Z,2.17
2022-10-06T00:57:04.491Z,2.90
2022-10-06T01:00:47.346Z,5.40
2022-10-06T01:04:32.868Z,3.77
2022-10-06T01:08:16.367Z,1.77
2022-10-06T01:12:01.579Z,1.73
2022-10-06T01:15:49.309Z,2.43
2022-10-06T01:19:39.922Z,1.73
2022-10-06T01:23:24.200Z,1.83
2022-10-06T01:27:09.528Z,2.57
2022-10-06T01:30:54.918Z,1.40
2022-10-06T01:34:37.790Z,2.80
2022-10-06T01:38:21.914Z,2.17
2022-10-06T01:42:06.341Z,3.60
2022-10-06T01:45:55.275Z,1.80
2022-10-06T01:49:37.967Z,1.83
2022-10-06T01:53:20.827Z,2.10
2022-10-06T01:57:03.510Z,1.70
2022-10-06T02:00:48.065Z,3.40
2022-10-06T02:04:30.710Z,4.83
2022-10-06T02:08:13.420Z,2.80
2022-10-06T02:11:56.108Z,3.60
2022-10-06T02:15:38.808Z,1.63
2022-10-06T02:19:23.176Z,3.17
2022-10-06T02:23:05.857Z,4.17
2022-10-06T02:26:48.538Z,3.80
2022-10-06T02:30:31.277Z,7.57
2022-10-06T02:34:14.011Z,2.30
2022-10-06T02:37:58.315Z,2.63
2022-10-06T02:41:41.125Z,3.20
2022-10-06T02:45:23.773Z,2.10
2022-10-06T02:49:06.455Z,1.67
2022-10-06T02:52:49.142Z,2.63
2022-10-06T02:56:33.250Z,4.87
2022-10-06T03:00:16.120Z,2.80
2022-10-06T03:03:58.889Z,2.87
2022-10-06T03:07:41.601Z,3.30
2022-10-06T03:11:25.835Z,2.53
2022-10-06T03:15:10.690Z,2.03
2022-10-06T03:18:54.723Z,2.70
2022-10-06T03:22:37.474Z,2.83
2022-10-06T03:26:21.902Z,3.13
2022-10-06T03:30:06.547Z,3.37
2022-10-06T03:33:51.744Z,2.93
2022-10-06T03:37:34.456Z,5.60
2022-10-06T03:41:18.472Z,2.13
2022-10-06T03:45:01.191Z,3.17
2022-10-06T03:48:43.901Z,2.30
2022-10-06T03:52:27.962Z,3.13
2022-10-06T03:56:14.698Z,4.47
2022-10-06T03:59:59.813Z,4.93
2022-10-06T04:03:42.594Z,3.97
2022-10-06T04:07:25.462Z,3.07
2022-10-06T04:11:11.385Z,1.70
2022-10-06T04:14:57.870Z,2.53
2022-10-06T04:18:43.374Z,2.27
2022-10-06T04:22:26.065Z,2.60
2022-10-06T04:26:12.985Z,2.63
2022-10-06T04:29:56.307Z,5.43
2022-10-06T04:33:39.090Z,3.93
2022-10-06T04:37:21.856Z,2.27
2022-10-06T04:41:08.576Z,1.73
2022-10-06T04:44:52.670Z,4.30
2022-10-06T04:48:35.464Z,3.33
2022-10-06T04:52:18.158Z,3.50
2022-10-06T04:56:02.511Z,2.30
2022-10-06T05:00:17.407Z,2.60
2022-10-06T05:04:03.097Z,2.93
2022-10-06T05:07:46.200Z,2.87
2022-10-06T05:11:29.385Z,2.83
2022-10-06T05:15:12.361Z,2.20
2022-10-06T05:18:55.359Z,1.70
2022-10-06T05:22:39.505Z,3.20
2022-10-06T05:26:36.779Z,3.80
2022-10-06T05:30:19.635Z,2.57
2022-10-06T05:34:02.404Z,4.13
2022-10-06T05:37:46.508Z,4.43
2022-10-06T05:41:31.496Z,3.67
2022-10-06T05:45:15.477Z,1.97
2022-10-06T05:48:59.301Z,2.33
2022-10-06T05:52:42.155Z,6.13
2022-10-06T05:56:27.240Z,4.83
2022-10-06T06:00:11.017Z,6.27
2022-10-06T06:03:54.998Z,9.90
2022-10-06T06:07:37.703Z,4.37
2022-10-06T06:11:25.233Z,4.37
2022-10-06T06:15:28.300Z,4.13
2022-10-06T06:19:12.729Z,3.33
2022-10-06T06:22:55.450Z,4.50
2022-10-06T06:26:38.922Z,3.97
2022-10-06T06:30:23.933Z,3.97
2022-10-06T06:34:07.693Z,3.80
2022-10-06T06:37:50.430Z,2.17
2022-10-06T06:41:35.950Z,2.03
2022-10-06T06:45:18.680Z,2.33
2022-10-06T06:49:05.191Z,2.23
2022-10-06T06:52:47.909Z,2.97
2022-10-06T06:56:35.098Z,2.30
2022-10-06T07:00:18.202Z,4.57
2022-10-06T07:04:02.213Z,3.37
2022-10-06T07:07:45.058Z,2.50
2022-10-06T07:11:29.654Z,3.60
2022-10-06T07:15:30.522Z,5.60
2022-10-06T07:19:32.905Z,2.93
2022-10-06T07:23:46.662Z,2.33
2022-10-06T07:27:29.965Z,1.97
2022-10-06T07:31:12.695Z,3.43
2022-10-06T07:34:58.118Z,3.40
2022-10-06T07:38:41.588Z,2.30
2022-10-06T07:42:24.289Z,6.77
2022-10-06T07:46:10.952Z,2.33
2022-10-06T07:49:56.034Z,4.40
2022-10-06T07:53:40.153Z,2.27
2022-10-06T07:57:23.066Z,2.80
2022-10-06T08:01:06.643Z,3.40
2022-10-06T08:04:49.405Z,3.67
2022-10-06T08:08:33.090Z,4.60
2022-10-06T08:12:40.925Z,6.90
2022-10-06T08:16:30.123Z,3.23
2022-10-06T08:20:13.986Z,7.17
2022-10-06T08:23:58.120Z,9.60
2022-10-06T08:27:44.132Z,7.13
2022-10-06T08:31:26.908Z,3.00
2022-10-06T08:35:09.919Z,3.93
2022-10-06T08:38:52.929Z,3.70
2022-10-06T08:42:42.338Z,6.73
2022-10-06T08:46:31.765Z,4.20
2022-10-06T08:50:14.516Z,6.30
2022-10-06T08:54:05.300Z,7.20
2022-10-06T08:57:55.246Z,5.83
2022-10-06T09:01:42.996Z,5.73
2022-10-06T09:05:28.164Z,6.83
2022-10-06T09:09:33.635Z,6.40
2022-10-06T09:13:54.292Z,6.40
2022-10-06T09:17:40.727Z,5.77
2022-10-06T09:21:30.300Z,4.47
2022-10-06T09:25:17.243Z,3.73
2022-10-06T09:29:00.450Z,4.80
2022-10-06T09:32:48.216Z,3.53
2022-10-06T09:36:30.978Z,9.83
2022-10-06T09:40:29.235Z,6.20
2022-10-06T09:44:23.202Z,7.97
2022-10-06T09:48:19.006Z,7.40
2022-10-06T09:52:05.458Z,11.53
2022-10-06T09:55:54.522Z,5.77
2022-10-06T09:59:42.614Z,8.33
2022-10-06T10:03:30.366Z,4.23
2022-10-06T10:07:16.807Z,6.67
2022-10-06T10:11:27.691Z,3.83
2022-10-06T10:15:25.834Z,5.03
2022-10-06T10:19:23.841Z,5.97
2022-10-06T10:23:20.653Z,6.50
2022-10-06T10:27:09.149Z,8.37
2022-10-06T10:31:02.457Z,7.80
2022-10-06T10:35:06.258Z,6.63
2022-10-06T10:38:49.594Z,4.90
2022-10-06T10:42:35.153Z,6.10
2022-10-06T10:46:24.080Z,7.90
2022-10-06T10:50:12.547Z,6.47
2022-10-06T10:53:57.801Z,4.20
2022-10-06T10:57:43.955Z,5.90
2022-10-06T11:01:33.384Z,2.87
2022-10-06T11:05:30.271Z,9.17
2022-10-06T11:09:14.921Z,5.93
2022-10-06T11:13:17.480Z,7.73
2022-10-06T11:17:05.074Z,5.33
2022-10-06T11:20:52.394Z,7.17
2022-10-06T11:24:42.279Z,6.47
2022-10-06T11:28:29.474Z,9.18
2022-10-06T11:32:20.138Z,8.03
2022-10-06T11:36:04.706Z,8.75
2022-10-06T11:39:50.259Z,5.70
2022-10-06T11:43:37.438Z,7.22
2022-10-06T11:47:35.212Z,6.35
2022-10-06T11:51:30.802Z,6.03
2022-10-06T11:55:23.760Z,9.20
2022-10-06T11:59:35.935Z,5.05
2022-10-06T12:03:55.088Z,4.60
2022-10-06T12:08:11.048Z,7.60
2022-10-06T12:11:55.994Z,8.32
2022-10-06T12:20:13.877Z,5.82
2022-10-06T12:24:03.025Z,4.93
2022-10-06T12:27:58.311Z,7.55
2022-10-06T12:31:47.726Z,7.88
2022-10-06T12:35:33.702Z,4.10
2022-10-06T12:39:25.024Z,8.00
2022-10-06T12:43:44.170Z,7.50
2022-10-06T12:47:35.621Z,3.88
2022-10-06T12:51:25.172Z,8.77
2022-10-06T12:55:22.385Z,5.45
2022-10-06T12:59:28.282Z,8.82
2022-10-06T13:03:18.812Z,9.02
2022-10-06T13:07:07.601Z,7.72
2022-10-06T13:10:51.452Z,7.40
2022-10-06T13:14:34.123Z,8.18
2022-10-06T13:18:19.578Z,4.45
2022-10-06T13:22:03.488Z,6.22
2022-10-06T13:25:49.499Z,6.35
2022-10-06T13:29:32.826Z,7.80
2022-10-06T13:33:15.502Z,7.45
2022-10-06T13:37:00.101Z,5.63
2022-10-06T13:40:45.229Z,8.05
2022-10-06T13:44:32.249Z,7.10
2022-10-06T13:48:17.065Z,10.07
2022-10-06T13:52:08.777Z,3.42
2022-10-06T13:55:54.193Z,3.67
2022-10-06T13:59:38.350Z,5.32
2022-10-06T14:07:26.188Z,4.20
2022-10-06T14:11:09.928Z,4.82
2022-10-06T14:14:53.984Z,5.00
2022-10-06T14:18:39.317Z,9.93
2022-10-06T14:22:34.302Z,5.60
2022-10-06T14:26:18.590Z,6.45
2022-10-06T14:30:01.810Z,10.40
2022-10-06T14:33:45.120Z,5.85
2022-10-06T14:37:27.786Z,8.40
2022-10-06T14:41:15.528Z,3.88
2022-10-06T14:45:01.359Z,6.43
2022-10-06T14:48:44.269Z,7.47
2022-10-06T14:52:27.011Z,4.60
2022-10-06T14:56:14.251Z,5.68
2022-10-06T14:59:57.260Z,7.35
2022-10-06T15:03:41.295Z,4.82
2022-10-06T15:07:43.599Z,6.97
2022-10-06T15:11:29.273Z,7.78
2022-10-06T15:15:12.152Z,7.07
2022-10-06T15:18:55.026Z,5.38
2022-10-06T15:22:37.772Z,8.48
2022-10-06T15:26:38.051Z,6.85
2022-10-06T15:30:23.146Z,4.47
2022-10-06T15:34:07.138Z,4.68
2022-10-06T15:37:49.794Z,8.55
2022-10-06T15:41:33.826Z,6.20
2022-10-06T15:45:18.267Z,4.30
2022-10-06T15:49:06.834Z,6.15
2022-10-06T15:52:49.598Z,5.05
2022-10-06T15:56:32.796Z,7.80
2022-10-06T16:00:16.664Z,5.30
2022-10-06T16:04:02.602Z,5.47
2022-10-06T16:07:46.676Z,5.05
2022-10-06T16:11:59.197Z,10.90
2022-10-06T16:15:42.041Z,6.72
2022-10-06T16:19:25.873Z,5.32
2022-10-06T16:23:09.918Z,10.75
2022-10-06T16:26:54.622Z,5.68
2022-10-06T16:30:37.308Z,6.35
2022-10-06T16:34:20.042Z,5.53
2022-10-06T16:38:02.765Z,4.93
2022-10-06T16:41:47.210Z,11.10
2022-10-06T16:45:29.947Z,5.57
2022-10-06T16:49:12.941Z,7.43
2022-10-06T16:52:58.211Z,10.10
2022-10-06T16:56:42.020Z,5.15
2022-10-06T17:00:26.628Z,6.53
2022-10-06T17:04:10.968Z,8.90
2022-10-06T17:07:58.947Z,7.57
2022-10-06T17:11:42.888Z,10.73
2022-10-06T17:15:31.283Z,7.32
2022-10-06T17:19:17.451Z,8.32
2022-10-06T17:23:00.211Z,8.55
2022-10-06T17:26:49.845Z,9.60
2022-10-06T17:30:34.028Z,11.88
2022-10-06T17:34:20.658Z,8.13
2022-10-06T17:38:04.637Z,13.73
2022-10-06T17:41:54.906Z,6.30
2022-10-06T17:45:40.465Z,6.90
2022-10-06T17:49:24.887Z,8.10
2022-10-06T17:53:07.837Z,12.47
2022-10-06T17:57:05.408Z,10.17
2022-10-06T18:00:49.545Z,8.03
2022-10-06T18:04:33.750Z,8.67
2022-10-06T18:08:17.061Z,10.80
2022-10-06T18:12:10.481Z,12.33
2022-10-06T18:15:54.490Z,8.50
2022-10-06T18:19:37.277Z,11.50
2022-10-06T18:23:19.927Z,8.23
2022-10-06T18:27:15.855Z,9.53
2022-10-06T18:30:59.958Z,12.03
2022-10-06T18:38:46.990Z,8.73
2022-10-06T18:42:29.750Z,7.53
2022-10-06T18:46:32.153Z,12.03
2022-10-06T18:50:41.293Z,11.00
2022-10-06T18:54:27.038Z,11.07
2022-10-06T18:58:10.099Z,9.17
2022-10-06T19:01:55.934Z,8.10
2022-10-06T19:05:38.761Z,10.87
2022-10-06T19:09:23.088Z,9.87
2022-10-06T19:13:05.853Z,10.43
2022-10-06T19:16:51.111Z,11.30
2022-10-06T19:20:35.197Z,9.83
2022-10-06T19:24:20.202Z,9.97
2022-10-06T19:28:03.122Z,9.13
2022-10-06T19:31:47.944Z,10.73
2022-10-06T19:35:30.597Z,10.73
2022-10-06T19:39:14.676Z,8.47
2022-10-06T19:42:57.395Z,9.53
2022-10-06T19:46:47.609Z,8.07
2022-10-06T19:50:30.580Z,9.20
2022-10-06T19:54:14.770Z,11.80
2022-10-06T19:57:57.567Z,8.83
2022-10-06T20:01:42.202Z,11.47
2022-10-06T20:05:25.507Z,8.37
2022-10-06T20:09:09.109Z,10.43
2022-10-06T20:12:53.219Z,10.33
2022-10-06T20:16:36.952Z,8.10
2022-10-06T20:20:20.500Z,9.33
2022-10-06T20:24:06.861Z,11.03
2022-10-06T20:27:50.255Z,11.90
2022-10-06T20:32:05.330Z,11.30
2022-10-06T20:35:48.140Z,11.00
2022-10-06T20:39:49.449Z,11.30
2022-10-06T20:43:33.461Z,9.20
2022-10-06T20:47:17.466Z,10.67
2022-10-06T20:51:00.135Z,12.50
2022-10-06T20:54:43.693Z,14.60
2022-10-06T20:58:26.587Z,15.83
2022-10-06T21:02:25.820Z,20.30
2022-10-06T21:06:08.601Z,13.83
2022-10-06T21:09:52.264Z,20.50
2022-10-06T21:13:35.216Z,10.70
2022-10-06T21:17:31.598Z,14.50
2022-10-06T21:21:15.006Z,12.07
2022-10-06T21:24:57.686Z,10.23
2022-10-06T21:28:41.060Z,11.53
2022-10-06T21:32:32.660Z,14.20
2022-10-06T21:36:17.226Z,11.60
2022-10-06T21:40:02.279Z,8.90
2022-10-06T21:43:45.302Z,12.67
2022-10-06T21:51:42.125Z,6.57
2022-10-06T21:55:24.773Z,7.03
2022-10-06T21:59:07.657Z,12.93
2022-10-06T22:02:50.332Z,7.90
2022-10-06T22:06:35.036Z,11.30
2022-10-06T22:10:19.125Z,9.07
2022-10-06T22:14:04.162Z,7.50
2022-10-06T22:17:47.707Z,6.90
2022-10-06T22:21:31.777Z,9.17
2022-10-06T22:25:14.482Z,7.33
2022-10-06T22:28:59.142Z,5.67
2022-10-06T22:32:41.794Z,7.10
2022-10-06T22:36:25.225Z,6.70
2022-10-06T22:40:09.554Z,7.83
2022-10-06T22:43:57.173Z,12.93
2022-10-06T22:47:41.399Z,7.37
2022-10-06T22:51:24.406Z,7.03
2022-10-06T22:55:08.084Z,6.63
2022-10-06T22:58:50.870Z,6.83
2022-10-06T23:02:33.638Z,7.03
2022-10-06T23:06:18.498Z,5.00
2022-10-06T23:10:01.207Z,5.10
2022-10-06T23:13:44.463Z,7.83
2022-10-06T23:17:27.125Z,7.70
2022-10-06T23:21:11.206Z,7.77
2022-10-06T23:24:55.266Z,11.73
2022-10-06T23:28:38.455Z,4.73
2022-10-06T23:32:21.322Z,7.13
2022-10-06T23:36:05.679Z,4.60
2022-10-06T23:39:48.500Z,6.17
2022-10-06T23:43:32.577Z,4.90
2022-10-06T23:47:15.268Z,8.97
2022-10-06T23:50:59.305Z,5.50
2022-10-06T23:54:42.031Z,6.07
2022-10-06T23:58:24.845Z,7.50
